createdAt,value
2023-12-10T00:01:57.978Z,6.10
2023-12-10T00:04:29.234Z,6.10
2023-12-10T00:06:57.197Z,6.10
2023-12-10T00:09:24.822Z,6.10
2023-12-10T00:11:51.948Z,6.10
2023-12-10T00:14:18.948Z,6.10
2023-12-10T00:16:45.997Z,6.10
2023-12-10T00:19:14.449Z,6.10
2023-12-10T00:21:41.550Z,6.10
2023-12-10T00:24:09.320Z,6.10
2023-12-10T00:26:36.455Z,6.10
2023-12-10T00:29:03.432Z,6.10
2023-12-10T00:31:30.419Z,6.10
2023-12-10T00:33:58.082Z,6.10
2023-12-10T00:36:28.654Z,6.10
2023-12-10T00:38:55.703Z,6.10
2023-12-10T00:41:22.676Z,6.10
2023-12-10T00:43:49.663Z,6.10
2023-12-10T00:46:16.796Z,6.10
2023-12-10T00:48:43.860Z,6.10
2023-12-10T00:51:19.774Z,6.20
2023-12-10T00:53:48.733Z,6.10
2023-12-10T00:56:16.035Z,6.10
2023-12-10T00:58:43.403Z,6.10
2023-12-10T01:01:10.509Z,6.10
2023-12-10T01:03:38.326Z,6.00
2023-12-10T01:06:07.536Z,6.00
2023-12-10T01:08:35.256Z,6.00
2023-12-10T01:11:03.905Z,6.00
2023-12-10T01:13:30.940Z,6.00
2023-12-10T01:15:57.938Z,6.00
2023-12-10T01:18:25.221Z,6.00
2023-12-10T01:20:52.303Z,6.00
2023-12-10T01:23:19.309Z,6.00
2023-12-10T01:25:46.282Z,6.00
2023-12-10T01:28:15.683Z,6.00
2023-12-10T01:30:42.719Z,6.00
2023-12-10T01:33:09.817Z,6.00
2023-12-10T01:35:37.332Z,6.00
2023-12-10T01:38:04.752Z,6.00
2023-12-10T01:40:31.761Z,6.00
2023-12-10T01:42:58.771Z,6.00
2023-12-10T01:45:27.171Z,6.00
2023-12-10T01:47:54.777Z,6.00
2023-12-10T01:50:23.047Z,6.00
2023-12-10T01:52:50.765Z,6.00
2023-12-10T01:55:18.873Z,6.00
2023-12-10T01:57:46.168Z,6.00
2023-12-10T02:00:14.108Z,6.00
2023-12-10T02:02:43.201Z,6.00
2023-12-10T02:05:11.339Z,6.00
2023-12-10T02:07:38.956Z,6.00
2023-12-10T02:10:07.811Z,6.00
2023-12-10T02:12:35.895Z,6.00
2023-12-10T02:15:14.645Z,6.00
2023-12-10T02:17:43.182Z,6.00
2023-12-10T02:20:11.965Z,6.00
2023-12-10T02:22:46.886Z,6.00
2023-12-10T02:25:20.456Z,6.00
2023-12-10T02:27:49.780Z,6.10
2023-12-10T02:30:16.889Z,6.00
2023-12-10T02:32:44.002Z,6.10
2023-12-10T02:35:10.936Z,6.10
2023-12-10T02:37:37.895Z,6.10
2023-12-10T02:40:06.468Z,6.10
2023-12-10T02:42:33.837Z,6.20
2023-12-10T02:45:02.406Z,6.20
2023-12-10T02:47:29.366Z,6.20
2023-12-10T02:49:56.473Z,6.20
2023-12-10T02:52:23.522Z,6.30
2023-12-10T02:54:50.810Z,6.30
2023-12-10T02:57:17.888Z,6.30
2023-12-10T02:59:44.869Z,6.30
2023-12-10T03:02:13.339Z,6.30
2023-12-10T03:04:40.369Z,6.40
2023-12-10T03:07:07.501Z,6.40
2023-12-10T03:09:34.477Z,6.40
2023-12-10T03:12:57.228Z,6.50
2023-12-10T03:15:33.453Z,6.40
2023-12-10T03:18:01.991Z,6.50
2023-12-10T03:20:29.044Z,6.50
2023-12-10T03:22:59.016Z,6.50
2023-12-10T03:25:26.570Z,6.50
2023-12-10T03:27:53.645Z,6.60
2023-12-10T03:30:21.071Z,6.60
2023-12-10T03:32:48.068Z,6.60
2023-12-10T03:35:16.447Z,6.70
2023-12-10T03:37:44.147Z,6.70
2023-12-10T03:40:12.575Z,6.70
2023-12-10T03:42:39.625Z,6.70
2023-12-10T03:45:08.044Z,6.70
2023-12-10T03:47:35.124Z,6.80
2023-12-10T03:50:02.284Z,6.80
2023-12-10T03:52:31.071Z,6.80
2023-12-10T03:54:58.398Z,6.80
2023-12-10T03:57:25.704Z,6.90
2023-12-10T03:59:52.834Z,6.90
2023-12-10T04:02:19.776Z,6.90
2023-12-10T04:04:47.002Z,6.90
2023-12-10T04:07:14.083Z,6.90
2023-12-10T04:09:42.767Z,7.00
2023-12-10T04:12:09.770Z,7.00
2023-12-10T04:14:36.746Z,7.00
2023-12-10T04:17:04.964Z,7.00
2023-12-10T04:19:32.064Z,7.10
2023-12-10T04:21:59.109Z,7.10
2023-12-10T04:24:26.158Z,7.10
2023-12-10T04:26:54.532Z,7.20
2023-12-10T04:29:21.525Z,7.20
2023-12-10T04:31:48.767Z,7.20
2023-12-10T04:34:15.822Z,7.30
2023-12-10T04:36:42.859Z,7.30
2023-12-10T04:39:10.195Z,7.30
2023-12-10T04:41:37.137Z,7.30
2023-12-10T04:44:05.852Z,7.40
2023-12-10T04:46:32.905Z,7.40
2023-12-10T04:49:00.383Z,7.40
2023-12-10T04:51:27.444Z,7.40
2023-12-10T04:53:54.447Z,7.40
2023-12-10T04:56:21.462Z,7.40
2023-12-10T04:58:48.893Z,7.40
2023-12-10T05:01:17.355Z,7.40
2023-12-10T05:03:44.676Z,7.40
2023-12-10T05:06:11.769Z,7.40
2023-12-10T05:08:38.848Z,7.40
2023-12-10T05:11:06.676Z,7.40
2023-12-10T05:13:33.636Z,7.50
2023-12-10T05:16:00.992Z,7.50
2023-12-10T05:18:29.669Z,7.50
2023-12-10T05:20:56.934Z,7.50
2023-12-10T05:23:23.956Z,7.60
2023-12-10T05:25:50.971Z,7.60
2023-12-10T05:28:18.182Z,7.60
2023-12-10T05:30:45.381Z,7.70
2023-12-10T05:33:12.771Z,7.70
2023-12-10T05:35:41.638Z,7.70
2023-12-10T05:38:08.644Z,7.70
2023-12-10T05:40:35.791Z,7.70
2023-12-10T05:43:05.754Z,7.70
2023-12-10T05:45:32.802Z,7.70
2023-12-10T05:47:59.971Z,7.70
2023-12-10T05:50:27.010Z,7.70
2023-12-10T05:52:55.361Z,7.70
2023-12-10T05:55:22.459Z,7.80
2023-12-10T05:57:49.525Z,7.80
2023-12-10T06:00:17.064Z,7.80
2023-12-10T06:02:44.091Z,7.80
2023-12-10T06:05:12.616Z,7.80
2023-12-10T06:07:40.061Z,7.80
2023-12-10T06:10:10.092Z,7.80
2023-12-10T06:12:37.215Z,7.80
2023-12-10T06:15:06.298Z,7.80
2023-12-10T06:17:33.405Z,7.80
2023-12-10T06:20:00.435Z,7.80
2023-12-10T06:22:27.612Z,7.80
2023-12-10T06:24:55.110Z,7.90
2023-12-10T06:27:23.659Z,7.90
2023-12-10T06:29:50.624Z,7.90
2023-12-10T06:32:17.707Z,7.90
2023-12-10T06:34:45.407Z,7.90
2023-12-10T06:37:12.510Z,7.90
2023-12-10T06:39:39.556Z,7.90
2023-12-10T06:42:06.631Z,7.90
2023-12-10T06:44:35.044Z,7.90
2023-12-10T06:47:02.000Z,7.90
2023-12-10T06:49:29.216Z,8.00
2023-12-10T06:51:56.447Z,7.90
2023-12-10T06:54:23.543Z,7.90
2023-12-10T06:56:50.762Z,8.00
2023-12-10T06:59:17.933Z,7.90
2023-12-10T07:01:46.419Z,8.00
2023-12-10T07:04:14.047Z,7.90
2023-12-10T07:06:41.036Z,8.00
2023-12-10T07:09:08.174Z,8.00
2023-12-10T07:11:35.319Z,8.00
2023-12-10T07:14:02.380Z,8.00
2023-12-10T07:16:29.516Z,8.00
2023-12-10T07:18:58.224Z,8.00
2023-12-10T07:21:25.407Z,8.00
2023-12-10T07:23:52.500Z,8.00
2023-12-10T07:26:22.760Z,8.00
2023-12-10T07:28:52.481Z,8.00
2023-12-10T07:31:19.990Z,8.10
2023-12-10T07:33:47.223Z,8.00
2023-12-10T07:36:15.946Z,8.10
2023-12-10T07:38:43.028Z,8.10
2023-12-10T07:41:10.129Z,8.10
2023-12-10T07:43:37.227Z,8.10
2023-12-10T07:46:04.809Z,8.10
2023-12-10T07:48:31.995Z,8.20
2023-12-10T07:50:59.060Z,8.10
2023-12-10T07:53:27.584Z,8.20
2023-12-10T07:55:54.611Z,8.20
2023-12-10T07:58:21.591Z,8.20
2023-12-10T08:00:49.200Z,8.20
2023-12-10T08:03:16.397Z,8.20
2023-12-10T08:05:43.706Z,8.20
2023-12-10T08:08:10.736Z,8.20
2023-12-10T08:10:39.080Z,8.30
2023-12-10T08:13:06.267Z,8.30
2023-12-10T08:15:33.339Z,8.30
2023-12-10T08:18:00.593Z,8.30
2023-12-10T08:20:27.923Z,8.30
2023-12-10T08:22:54.923Z,8.40
2023-12-10T08:25:22.976Z,8.40
2023-12-10T08:27:51.602Z,8.50
2023-12-10T08:30:19.285Z,8.50
2023-12-10T08:32:46.313Z,8.50
2023-12-10T08:35:13.308Z,8.60
2023-12-10T08:37:40.293Z,8.60
2023-12-10T08:40:08.440Z,8.60
2023-12-10T08:42:35.518Z,8.60
2023-12-10T08:45:05.042Z,8.70
2023-12-10T08:47:32.154Z,8.70
2023-12-10T08:49:59.250Z,8.80
2023-12-10T08:52:26.361Z,8.80
2023-12-10T08:54:53.684Z,8.70
2023-12-10T08:57:24.756Z,8.80
2023-12-10T08:59:51.746Z,8.80
2023-12-10T09:02:20.569Z,8.80
2023-12-10T09:04:47.795Z,8.80
2023-12-10T09:07:14.863Z,8.80
2023-12-10T09:09:41.787Z,8.80
2023-12-10T09:12:08.845Z,8.80
2023-12-10T09:14:35.772Z,8.80
2023-12-10T09:17:03.010Z,8.80
2023-12-10T09:19:33.564Z,8.80
2023-12-10T09:22:00.900Z,8.90
2023-12-10T09:24:28.085Z,8.90
2023-12-10T09:27:02.349Z,8.90
2023-12-10T09:29:31.776Z,8.90
2023-12-10T09:32:04.190Z,8.90
2023-12-10T09:34:32.849Z,8.90
2023-12-10T09:37:00.388Z,9.00
2023-12-10T09:39:30.485Z,9.00
2023-12-10T09:41:57.647Z,9.10
2023-12-10T09:44:24.672Z,9.10
2023-12-10T09:46:51.667Z,9.10
2023-12-10T09:49:19.844Z,9.00
2023-12-10T09:51:48.335Z,9.00
2023-12-10T09:54:15.459Z,9.00
2023-12-10T09:56:42.496Z,9.00
2023-12-10T09:59:09.586Z,9.00
2023-12-10T10:01:36.725Z,9.10
2023-12-10T10:04:03.846Z,9.10
2023-12-10T10:06:31.082Z,9.20
2023-12-10T10:08:59.502Z,9.30
2023-12-10T10:11:26.527Z,9.40
2023-12-10T10:13:54.563Z,9.50
2023-12-10T10:16:21.631Z,9.60
2023-12-10T10:18:49.337Z,9.70
2023-12-10T10:21:16.624Z,9.60
2023-12-10T10:23:43.718Z,9.60
2023-12-10T10:26:13.481Z,9.60
2023-12-10T10:28:40.543Z,9.60
2023-12-10T10:31:16.240Z,9.70
2023-12-10T10:33:48.335Z,9.60
2023-12-10T10:36:19.070Z,9.50
2023-12-10T10:38:47.092Z,9.50
2023-12-10T10:41:15.649Z,9.60
2023-12-10T10:43:42.789Z,9.70
2023-12-10T10:46:11.294Z,9.70
2023-12-10T10:48:44.646Z,9.80
2023-12-10T10:51:15.418Z,9.80
2023-12-10T10:53:43.449Z,9.80
2023-12-10T10:56:10.960Z,9.90
2023-12-10T10:58:41.163Z,9.90
2023-12-10T11:01:40.373Z,10.00
2023-12-10T11:04:11.978Z,9.90
2023-12-10T11:06:42.578Z,10.00
2023-12-10T11:09:09.861Z,10.00
2023-12-10T11:11:40.478Z,10.00
2023-12-10T11:14:20.151Z,10.00
2023-12-10T11:16:57.996Z,9.90
2023-12-10T11:19:25.173Z,9.80
2023-12-10T11:21:52.337Z,9.80
2023-12-10T11:24:19.386Z,9.80
2023-12-10T11:26:46.496Z,9.80
2023-12-10T11:29:14.858Z,9.70
2023-12-10T11:31:43.975Z,9.70
2023-12-10T11:34:11.366Z,9.70
2023-12-10T11:36:38.807Z,9.60
2023-12-10T11:39:12.368Z,9.60
2023-12-10T11:41:52.276Z,9.50
2023-12-10T11:44:28.242Z,9.50
2023-12-10T11:46:58.068Z,9.50
2023-12-10T11:49:25.816Z,9.50
2023-12-10T11:51:53.553Z,9.50
2023-12-10T11:54:20.908Z,9.60
2023-12-10T11:56:48.018Z,9.70
2023-12-10T11:59:16.722Z,9.80
2023-12-10T12:01:47.172Z,10.10
2023-12-10T12:04:14.446Z,10.10
2023-12-10T12:06:43.421Z,10.10
2023-12-10T12:09:15.185Z,10.20
2023-12-10T12:11:42.243Z,10.20
2023-12-10T12:14:15.337Z,10.30
2023-12-10T12:16:42.390Z,10.40
2023-12-10T12:19:10.956Z,10.40
2023-12-10T12:21:38.261Z,10.40
2023-12-10T12:24:05.893Z,10.40
2023-12-10T12:26:33.007Z,10.40
2023-12-10T12:28:59.972Z,10.40
2023-12-10T12:31:27.031Z,10.60
2023-12-10T12:33:54.184Z,10.60
2023-12-10T12:36:22.610Z,10.60
2023-12-10T12:38:49.654Z,10.50
2023-12-10T12:41:16.704Z,10.50
2023-12-10T12:43:43.734Z,10.40
2023-12-10T12:46:10.771Z,10.30
2023-12-10T12:48:38.084Z,10.30
2023-12-10T12:51:05.418Z,10.20
2023-12-10T12:53:33.775Z,10.20
2023-12-10T12:56:20.865Z,10.20
2023-12-10T12:58:50.643Z,10.10
2023-12-10T13:01:17.980Z,10.10
2023-12-10T13:03:45.104Z,10.10
2023-12-10T13:06:12.175Z,10.10
2023-12-10T13:08:40.865Z,10.10
2023-12-10T13:11:07.900Z,10.20
2023-12-10T13:13:35.132Z,10.20
2023-12-10T13:16:02.907Z,10.20
2023-12-10T13:18:30.565Z,10.20
2023-12-10T13:20:57.636Z,10.20
2023-12-10T13:23:37.400Z,10.10
2023-12-10T13:26:06.053Z,10.10
2023-12-10T13:28:33.079Z,10.10
2023-12-10T13:31:00.243Z,10.10
2023-12-10T13:33:27.481Z,10.10
2023-12-10T13:35:54.569Z,10.00
2023-12-10T13:38:21.639Z,10.00
2023-12-10T13:40:48.683Z,10.00
2023-12-10T13:43:18.359Z,10.10
2023-12-10T13:45:45.471Z,10.00
2023-12-10T13:48:12.678Z,10.00
2023-12-10T13:50:39.956Z,9.90
2023-12-10T13:53:07.009Z,9.90
2023-12-10T13:55:34.197Z,9.90
2023-12-10T13:58:01.475Z,9.90
2023-12-10T14:00:29.922Z,9.80
2023-12-10T14:02:57.201Z,9.80
2023-12-10T14:05:25.656Z,9.80
2023-12-10T14:07:52.818Z,9.80
2023-12-10T14:10:19.977Z,9.80
2023-12-10T14:12:47.499Z,9.80
2023-12-10T14:15:14.631Z,9.70
2023-12-10T14:17:43.230Z,9.80
2023-12-10T14:20:12.717Z,9.80
2023-12-10T14:22:40.321Z,9.70
2023-12-10T14:25:08.195Z,9.70
2023-12-10T14:27:35.385Z,9.70
2023-12-10T14:30:02.391Z,9.70
2023-12-10T14:32:29.431Z,9.70
2023-12-10T14:34:57.872Z,9.80
2023-12-10T14:37:25.009Z,9.70
2023-12-10T14:39:52.032Z,9.70
2023-12-10T14:42:19.033Z,9.70
2023-12-10T14:44:46.290Z,9.70
2023-12-10T14:47:13.429Z,9.70
2023-12-10T14:49:40.497Z,9.70
2023-12-10T14:52:09.130Z,9.70
2023-12-10T14:54:36.239Z,9.70
2023-12-10T14:57:03.384Z,9.70
2023-12-10T14:59:31.101Z,9.60
2023-12-10T15:02:06.028Z,9.60
2023-12-10T15:04:39.007Z,9.60
2023-12-10T15:07:06.164Z,9.60
2023-12-10T15:09:37.135Z,9.60
2023-12-10T15:12:04.838Z,9.60
2023-12-10T15:14:31.908Z,9.60
2023-12-10T15:16:58.990Z,9.50
2023-12-10T15:19:26.507Z,9.50
2023-12-10T15:21:55.437Z,9.40
2023-12-10T15:24:22.564Z,9.40
2023-12-10T15:26:51.138Z,9.40
2023-12-10T15:29:18.200Z,9.30
2023-12-10T15:31:45.213Z,9.20
2023-12-10T15:34:12.264Z,9.20
2023-12-10T15:36:39.777Z,9.20
2023-12-10T15:39:06.949Z,9.10
2023-12-10T15:41:33.987Z,9.20
2023-12-10T15:44:02.507Z,9.10
2023-12-10T15:46:29.514Z,9.10
2023-12-10T15:48:56.585Z,9.10
2023-12-10T15:51:23.929Z,9.10
2023-12-10T15:53:50.988Z,9.10
2023-12-10T15:56:17.987Z,9.10
2023-12-10T15:58:44.989Z,9.10
2023-12-10T16:01:17.256Z,9.00
2023-12-10T16:03:45.004Z,9.00
2023-12-10T16:06:12.278Z,9.00
2023-12-10T16:08:39.314Z,9.00
2023-12-10T16:11:06.634Z,9.00
2023-12-10T16:13:34.724Z,9.00
2023-12-10T16:16:04.486Z,8.90
2023-12-10T16:18:33.162Z,8.90
2023-12-10T16:21:03.878Z,8.90
2023-12-10T16:23:35.258Z,8.90
2023-12-10T16:26:02.364Z,8.90
2023-12-10T16:28:29.480Z,8.90
2023-12-10T16:30:56.509Z,8.90
2023-12-10T16:33:23.642Z,8.90
2023-12-10T16:35:52.189Z,8.90
2023-12-10T16:38:19.309Z,8.90
2023-12-10T16:40:46.330Z,8.90
2023-12-10T16:43:13.457Z,8.90
2023-12-10T16:45:40.536Z,8.90
2023-12-10T16:48:07.616Z,8.90
2023-12-10T16:50:35.609Z,8.90
2023-12-10T16:53:04.104Z,9.00
2023-12-10T16:55:31.098Z,9.00
2023-12-10T16:57:59.478Z,9.00
2023-12-10T17:00:26.752Z,9.00
2023-12-10T17:02:53.853Z,9.00
2023-12-10T17:05:21.000Z,9.00
2023-12-10T17:07:51.233Z,9.00
2023-12-10T17:10:24.092Z,9.00
2023-12-10T17:12:53.714Z,9.00
2023-12-10T17:15:21.137Z,9.00
2023-12-10T17:17:48.386Z,9.00
2023-12-10T17:20:16.190Z,9.00
2023-12-10T17:22:43.290Z,9.00
2023-12-10T17:25:10.650Z,9.00
2023-12-10T17:27:39.158Z,9.00
2023-12-10T17:30:07.835Z,9.00
2023-12-10T17:32:34.873Z,9.00
2023-12-10T17:35:04.206Z,9.00
2023-12-10T17:37:31.832Z,9.00
2023-12-10T17:39:59.191Z,9.00
2023-12-10T17:42:26.319Z,9.00
2023-12-10T17:44:57.308Z,8.90
2023-12-10T17:47:25.112Z,8.90
2023-12-10T17:49:52.425Z,8.90
2023-12-10T17:52:19.745Z,8.90
2023-12-10T17:54:46.909Z,8.90
2023-12-10T17:57:13.915Z,8.90
2023-12-10T17:59:41.116Z,8.90
2023-12-10T18:02:09.547Z,9.00
2023-12-10T18:04:39.701Z,8.90
2023-12-10T18:07:07.361Z,8.90
2023-12-10T18:09:34.498Z,8.90
2023-12-10T18:12:01.599Z,8.90
2023-12-10T18:14:28.604Z,8.80
2023-12-10T18:16:56.646Z,8.90
2023-12-10T18:19:25.157Z,8.80
2023-12-10T18:21:52.310Z,8.80
2023-12-10T18:24:19.427Z,8.80
2023-12-10T18:26:46.564Z,8.80
2023-12-10T18:29:13.627Z,8.80
2023-12-10T18:31:40.751Z,8.80
2023-12-10T18:34:07.800Z,8.80
2023-12-10T18:36:36.705Z,8.80
2023-12-10T18:39:04.029Z,8.70
2023-12-10T18:41:31.189Z,8.70
2023-12-10T18:43:58.189Z,8.70
2023-12-10T18:46:25.173Z,8.70
2023-12-10T18:49:10.533Z,8.70
2023-12-10T18:51:46.444Z,8.70
2023-12-10T18:54:18.484Z,8.70
2023-12-10T18:56:57.237Z,8.60
2023-12-10T18:59:30.352Z,8.60
2023-12-10T19:02:02.871Z,8.60
2023-12-10T19:04:30.937Z,8.60
2023-12-10T19:06:59.476Z,8.60
2023-12-10T19:09:28.690Z,8.60
2023-12-10T19:11:59.089Z,8.50
2023-12-10T19:14:41.922Z,8.60
2023-12-10T19:17:43.430Z,8.50
2023-12-10T19:20:56.232Z,8.60
2023-12-10T19:26:34.126Z,8.50
2023-12-10T19:29:11.314Z,8.50
2023-12-10T19:31:41.413Z,8.50
2023-12-10T19:34:11.807Z,8.50
2023-12-10T19:36:40.323Z,8.50
2023-12-10T19:39:44.152Z,8.50
2023-12-10T19:42:11.280Z,8.50
2023-12-10T19:45:06.146Z,8.50
2023-12-10T19:47:33.729Z,8.50
2023-12-10T19:50:01.153Z,8.50
2023-12-10T19:52:30.440Z,8.50
2023-12-10T19:55:17.683Z,8.50
2023-12-10T19:57:50.408Z,8.40
2023-12-10T20:00:36.129Z,8.50
2023-12-10T20:03:06.847Z,8.40
2023-12-10T20:05:36.962Z,8.40
2023-12-10T20:08:24.114Z,8.50
2023-12-10T20:10:53.432Z,8.50
2023-12-10T20:16:35.526Z,8.40
2023-12-10T20:19:09.339Z,8.40
2023-12-10T20:21:36.950Z,8.40
2023-12-10T20:24:31.289Z,8.50
2023-12-10T20:27:16.104Z,8.40
2023-12-10T20:30:04.770Z,8.40
2023-12-10T20:32:32.092Z,8.40
2023-12-10T20:35:02.802Z,8.40
2023-12-10T20:37:29.994Z,8.40
2023-12-10T20:40:02.803Z,8.40
2023-12-10T20:42:34.178Z,8.40
2023-12-10T20:45:03.231Z,8.40
2023-12-10T20:47:31.300Z,8.40
2023-12-10T20:50:05.605Z,8.40
2023-12-10T20:52:33.206Z,8.40
2023-12-10T20:55:00.596Z,8.40
2023-12-10T20:57:28.110Z,8.40
2023-12-10T20:59:59.526Z,8.40
2023-12-10T21:02:29.686Z,8.40
2023-12-10T21:04:57.659Z,8.40
2023-12-10T21:07:25.875Z,8.40
2023-12-10T21:09:56.032Z,8.40
2023-12-10T21:12:23.627Z,8.40
2023-12-10T21:14:55.227Z,8.30
2023-12-10T21:17:24.034Z,8.30
2023-12-10T21:19:51.896Z,8.30
2023-12-10T21:22:21.821Z,8.30
2023-12-10T21:24:51.881Z,8.30
2023-12-10T21:27:19.304Z,8.30
2023-12-10T21:29:53.566Z,8.30
2023-12-10T21:32:23.296Z,8.30
2023-12-10T21:34:53.742Z,8.40
2023-12-10T21:37:21.026Z,8.40
2023-12-10T21:39:48.387Z,8.40
2023-12-10T21:42:15.859Z,8.40
2023-12-10T21:44:43.024Z,8.40
2023-12-10T21:47:13.185Z,8.40
2023-12-10T21:49:44.745Z,8.40
2023-12-10T21:52:13.619Z,8.40
2023-12-10T21:54:43.662Z,8.40
2023-12-10T21:57:16.239Z,8.40
2023-12-10T21:59:43.345Z,8.40
2023-12-10T22:02:10.553Z,8.40
2023-12-10T22:04:40.217Z,8.40
2023-12-10T22:07:11.342Z,8.40
2023-12-10T22:09:40.860Z,8.40
2023-12-10T22:12:11.560Z,8.40
2023-12-10T22:14:38.767Z,8.40
2023-12-10T22:17:09.851Z,8.40
2023-12-10T22:19:43.133Z,8.40
2023-12-10T22:22:13.442Z,8.30
2023-12-10T22:24:45.504Z,8.30
2023-12-10T22:27:15.634Z,8.30
2023-12-10T22:29:42.886Z,8.30
2023-12-10T22:32:12.771Z,8.40
2023-12-10T22:34:43.137Z,8.30
2023-12-10T22:37:14.021Z,8.30
2023-12-10T22:39:42.880Z,8.30
2023-12-10T22:42:10.649Z,8.30
2023-12-10T22:44:42.631Z,8.30
2023-12-10T22:47:10.102Z,8.30
2023-12-10T22:49:42.942Z,8.30
2023-12-10T22:52:11.983Z,8.30
2023-12-10T22:54:39.492Z,8.30
2023-12-10T22:57:08.011Z,8.30
2023-12-10T22:59:38.848Z,8.30
2023-12-10T23:02:06.109Z,8.30
2023-12-10T23:04:34.121Z,8.30
2023-12-10T23:07:01.500Z,8.30
2023-12-10T23:09:31.583Z,8.30
2023-12-10T23:11:58.643Z,8.30
2023-12-10T23:14:27.246Z,8.30
2023-12-10T23:16:54.642Z,8.30
2023-12-10T23:19:26.949Z,8.30
2023-12-10T23:21:54.761Z,8.30
2023-12-10T23:24:22.008Z,8.30
2023-12-10T23:26:49.764Z,8.30
2023-12-10T23:29:20.696Z,8.30
2023-12-10T23:31:49.298Z,8.40
2023-12-10T23:34:16.388Z,8.30
2023-12-10T23:36:43.438Z,8.30
2023-12-10T23:39:10.658Z,8.30
2023-12-10T23:41:38.109Z,8.30
2023-12-10T23:44:05.335Z,8.30
2023-12-10T23:46:32.352Z,8.30
2023-12-10T23:49:01.174Z,8.30
2023-12-10T23:51:28.438Z,8.30
2023-12-10T23:53:55.513Z,8.30
2023-12-10T23:56:22.671Z,8.30
2023-12-10T23:58:49.651Z,8.30
